Time;durP1;ratioP1;P1;durP2;ratioP2;P2;SDS_P1;SDS_P2;PMS_P1;PMS_P2;Temp;Humidity;BMP_temperature;BMP_pressure;BME280_temperature;BME280_humidity;BME280_pressure;Samples;Min_cycle;Max_cycle;Signal;HPM_P1;HPM_P2
2021/03/21 00:01:49;;;;;;;41.03;21.93;;;;;;;-0.30;59.72;101085.34;125157;1100;104463;-79
2021/03/21 00:04:18;;;;;;;47.20;22.40;;;;;;;-0.33;59.58;101082.49;125257;1102;104469;-78
2021/03/21 00:06:47;;;;;;;42.03;21.17;;;;;;;-0.35;59.77;101077.98;125155;1102;104162;-78
2021/03/21 00:09:16;;;;;;;43.37;19.90;;;;;;;-0.38;59.75;101084.66;125498;1099;104178;-78
2021/03/21 00:11:45;;;;;;;40.67;20.67;;;;;;;-0.40;59.76;101082.73;126193;1099;104191;-79
2021/03/21 00:14:14;;;;;;;41.13;21.40;;;;;;;-0.43;59.60;101075.62;125235;1099;104248;-78
2021/03/21 00:16:44;;;;;;;42.73;20.70;;;;;;;-0.43;59.35;101077.31;126259;1099;104201;-78
2021/03/21 00:19:13;;;;;;;40.10;21.63;;;;;;;-0.44;59.38;101078.96;126288;1099;104281;-78
2021/03/21 00:21:41;;;;;;;41.40;19.53;;;;;;;-0.46;60.21;101074.45;126247;1099;104223;-79
2021/03/21 00:24:11;;;;;;;42.93;21.57;;;;;;;-0.48;60.44;101078.55;126225;1099;104146;-79
2021/03/21 00:26:39;;;;;;;40.53;20.57;;;;;;;-0.50;60.05;101075.84;126115;1099;104223;-79
2021/03/21 00:29:09;;;;;;;43.17;21.70;;;;;;;-0.51;59.60;101074.05;126265;1099;104275;-78
2021/03/21 00:31:39;;;;;;;41.90;21.20;;;;;;;-0.55;60.47;101067.72;126278;1099;104203;-77
2021/03/21 00:34:08;;;;;;;41.70;21.73;;;;;;;-0.56;59.42;101054.70;126221;1099;104159;-77
2021/03/21 00:36:36;;;;;;;40.83;21.27;;;;;;;-0.53;59.63;101056.63;126266;1099;104440;-78
2021/03/21 00:39:05;;;;;;;41.70;21.63;;;;;;;-0.52;60.11;101051.60;126228;1099;104312;-78
2021/03/21 00:41:34;;;;;;;42.40;19.67;;;;;;;-0.53;59.92;101060.13;126255;1099;104162;-78
2021/03/21 00:44:03;;;;;;;42.50;21.47;;;;;;;-0.57;60.74;101047.72;126269;1099;104149;-79
2021/03/21 00:46:32;;;;;;;43.33;20.57;;;;;;;-0.59;59.56;101052.74;125342;1099;104152;-78
2021/03/21 00:49:01;;;;;;;39.40;19.63;;;;;;;-0.62;60.49;101061.89;125186;1099;104163;-78
2021/03/21 00:51:30;;;;;;;35.13;17.53;;;;;;;-0.64;60.73;101060.82;125196;1099;104143;-79
2021/03/21 00:53:58;;;;;;;39.87;19.40;;;;;;;-0.69;60.89;101051.78;125209;1099;104152;-78
2021/03/21 00:56:32;;;;;;;39.90;20.63;;;;;;;-0.73;60.78;101050.62;125167;1100;104181;-79
2021/03/21 00:59:02;;;;;;;41.27;20.00;;;;;;;-0.74;60.92;101049.69;125252;1099;104603;-78
2021/03/21 01:01:32;;;;;;;38.30;19.07;;;;;;;-0.74;60.34;101053.95;125182;1099;104198;-79
2021/03/21 01:04:01;;;;;;;42.07;21.13;;;;;;;-0.78;60.78;101042.47;125167;1098;104689;-79
2021/03/21 01:06:31;;;;;;;41.93;20.00;;;;;;;-0.78;60.64;101041.55;125244;1099;104140;-78
2021/03/21 01:09:05;;;;;;;41.10;19.97;;;;;;;-0.76;61.31;101040.92;125174;1102;104214;-78
2021/03/21 01:11:37;;;;;;;37.78;19.57;;;;;;;-0.76;60.61;101038.34;125157;1099;104162;-79
2021/03/21 01:14:07;;;;;;;41.40;21.87;;;;;;;-0.74;61.27;101035.91;125147;1099;104328;-78
2021/03/21 01:16:38;;;;;;;41.27;20.50;;;;;;;-0.73;61.04;101036.05;125207;1099;104147;-78
2021/03/21 01:19:12;;;;;;;42.20;20.77;;;;;;;-0.68;61.03;101044.19;125163;1099;104178;-78
2021/03/21 01:21:44;;;;;;;38.90;19.33;;;;;;;-0.68;61.09;101032.98;125188;1099;104816;-78
2021/03/21 01:24:15;;;;;;;37.13;18.93;;;;;;;-0.74;60.63;101043.64;125208;1099;104162;-78
2021/03/21 01:26:44;;;;;;;37.60;19.07;;;;;;;-0.79;61.19;101040.66;125196;1099;104146;-78
2021/03/21 01:29:13;;;;;;;38.00;19.17;;;;;;;-0.83;61.38;101043.70;125235;1102;104296;-77
2021/03/21 01:31:42;;;;;;;34.10;18.40;;;;;;;-0.87;60.62;101036.49;125278;1102;104201;-78
2021/03/21 01:34:12;;;;;;;39.37;20.43;;;;;;;-0.90;61.38;101036.22;125191;1102;104194;-77
2021/03/21 01:36:42;;;;;;;38.40;20.27;;;;;;;-0.93;61.72;101033.36;125289;1102;104332;-78
2021/03/21 01:39:20;;;;;;;36.03;19.20;;;;;;;-0.93;61.51;101035.94;125294;1102;103021;-78
2021/03/21 01:41:57;;;;;;;39.33;17.60;;;;;;;-0.95;61.61;101040.03;125203;1102;104236;-78
2021/03/21 01:44:26;;;;;;;39.57;19.27;;;;;;;-0.96;61.85;101041.71;125208;1102;104287;-79
2021/03/21 01:47:22;;;;;;;38.60;18.70;;;;;;;-0.98;61.87;101038.11;125265;1102;104306;-79
2021/03/21 01:49:51;;;;;;;39.37;18.37;;;;;;;-1.01;61.93;101036.90;125292;1102;104287;-78
2021/03/21 01:52:31;;;;;;;38.17;19.47;;;;;;;-1.05;61.77;101032.26;125215;1102;104323;-78
2021/03/21 01:55:00;;;;;;;37.97;20.10;;;;;;;-1.08;61.44;101030.30;125219;1101;104697;-79
2021/03/21 01:57:30;;;;;;;38.30;19.73;;;;;;;-1.10;61.47;101032.73;125229;1102;104200;-79
2021/03/21 01:59:59;;;;;;;37.17;19.90;;;;;;;-1.14;61.95;101027.17;125210;1102;104137;-78
2021/03/21 02:02:27;;;;;;;41.33;19.60;;;;;;;-1.18;61.84;101028.57;125136;1100;104162;-79
2021/03/21 02:04:56;;;;;;;41.37;19.37;;;;;;;-1.21;62.03;101030.86;125200;1099;104284;-79
2021/03/21 02:07:41;;;;;;;41.83;20.97;;;;;;;-1.22;61.72;101026.47;125221;1099;104153;-79
2021/03/21 02:10:18;;;;;;;41.00;19.35;;;;;;;-1.23;61.15;101024.69;125201;1099;104213;-79
2021/03/21 02:12:59;;;;;;;42.63;20.00;;;;;;;-1.24;62.24;101024.55;125221;1099;104152;-79
2021/03/21 02:15:37;;;;;;;38.73;18.93;;;;;;;-1.28;61.69;101024.27;125239;1099;104204;-79
2021/03/21 02:18:15;;;;;;;40.47;20.30;;;;;;;-1.30;61.73;101018.05;125238;1099;104329;-79
2021/03/21 02:21:07;;;;;;;38.67;20.00;;;;;;;-1.32;61.65;101017.02;125174;1099;104274;-79
2021/03/21 02:24:04;;;;;;;39.97;20.20;;;;;;;-1.34;62.00;101018.55;125097;1102;104146;-79
2021/03/21 02:26:54;;;;;;;40.27;19.03;;;;;;;-1.35;62.58;101010.69;125212;1099;104219;-78
2021/03/21 02:29:35;;;;;;;38.93;19.37;;;;;;;-1.33;62.45;101011.72;125226;1099;104281;-79
2021/03/21 02:32:08;;;;;;;36.60;19.13;;;;;;;-1.31;62.74;101010.18;125254;1099;104191;-78
2021/03/21 02:34:50;;;;;;;35.23;18.70;;;;;;;-1.26;61.44;101008.95;125122;1100;102071;-78
2021/03/21 02:37:27;;;;;;;36.93;18.47;;;;;;;-1.24;62.58;101007.41;125193;1099;104288;-79
2021/03/21 02:40:06;;;;;;;37.53;18.50;;;;;;;-1.23;62.17;100992.85;125237;1099;104293;-78
2021/03/21 02:42:40;;;;;;;37.23;18.47;;;;;;;-1.18;62.75;101000.23;125279;1099;104152;-78
2021/03/21 02:45:12;;;;;;;;;;;;;;;-1.15;62.30;100997.94;125227;1099;104274;-79
2021/03/21 02:47:44;;;;;;;39.03;18.60;;;;;;;-1.15;62.42;100997.05;125552;1099;104195;-78
2021/03/21 02:50:20;;;;;;;36.40;18.17;;;;;;;-1.20;61.94;100994.05;126262;1098;104155;-78
2021/03/21 02:52:54;;;;;;;36.77;18.20;;;;;;;-1.23;62.54;100993.78;126283;1097;104166;-78
2021/03/21 02:55:30;;;;;;;35.37;17.40;;;;;;;-1.27;62.63;101002.87;125346;1099;104200;-79
2021/03/21 02:58:03;;;;;;;38.93;18.23;;;;;;;-1.33;61.66;100993.70;126274;1099;118933;-78
2021/03/21 03:00:38;;;;;;;35.23;17.70;;;;;;;-1.37;62.55;100999.32;126245;1099;104229;-78
2021/03/21 03:03:11;;;;;;;39.30;19.40;;;;;;;-1.40;61.95;100993.89;126268;1099;104302;-79
2021/03/21 03:05:44;;;;;;;35.07;18.37;;;;;;;-1.42;62.14;100998.01;125394;1099;104223;-79
2021/03/21 03:08:17;;;;;;;34.90;18.67;;;;;;;-1.46;61.96;100992.58;125347;1102;105831;-78
2021/03/21 03:10:51;;;;;;;36.23;17.90;;;;;;;-1.49;62.06;101001.70;126250;1099;104211;-78
2021/03/21 03:13:24;;;;;;;37.97;19.33;;;;;;;-1.49;63.22;101004.27;125338;1099;104201;-79
2021/03/21 03:15:58;;;;;;;38.90;19.33;;;;;;;-1.48;62.17;101004.42;126221;1099;104580;-79
2021/03/21 03:18:41;;;;;;;38.00;19.55;;;;;;;-1.47;62.11;101003.63;126231;1099;111948;-78
2021/03/21 03:21:20;;;;;;;43.57;19.53;;;;;;;-1.48;63.09;100999.27;126295;1099;104169;-78
2021/03/21 03:23:56;;;;;;;40.47;20.33;;;;;;;-1.48;62.85;100998.34;126291;1099;104162;-78
2021/03/21 03:26:33;;;;;;;37.07;19.47;;;;;;;-1.45;63.26;100988.33;126147;1099;104233;-79
2021/03/21 03:29:09;;;;;;;40.50;20.43;;;;;;;-1.42;62.52;100996.33;126245;1099;104240;-78
2021/03/21 03:31:45;;;;;;;38.13;19.87;;;;;;;-1.39;63.47;100987.99;126330;1099;104159;-78
2021/03/21 03:34:15;;;;;;;39.45;19.35;;;;;;;-1.38;63.44;100989.81;126278;1099;104146;-78
2021/03/21 03:36:44;;;;;;;38.60;19.23;;;;;;;-1.37;62.53;100984.80;125317;1099;104155;-78
2021/03/21 03:39:13;;;;;;;39.30;18.97;;;;;;;-1.34;62.43;100986.73;126231;1099;104171;-78
2021/03/21 03:41:44;;;;;;;37.60;19.50;;;;;;;-1.33;63.61;100981.72;126231;1099;104140;-78
2021/03/21 03:44:27;;;;;;;36.60;18.90;;;;;;;-1.32;62.60;100985.22;126249;1099;104637;-78
2021/03/21 03:47:04;;;;;;;41.50;20.03;;;;;;;-1.32;63.65;100988.69;126167;1099;104152;-79
2021/03/21 03:49:44;;;;;;;39.10;19.07;;;;;;;-1.30;62.84;100979.42;126287;1099;104155;-78
2021/03/21 03:52:39;;;;;;;38.27;19.67;;;;;;;-1.32;63.67;100983.54;126223;1099;104159;-78
2021/03/21 03:55:13;;;;;;;35.37;17.97;;;;;;;-1.37;62.19;100983.88;126288;1099;104159;-78
2021/03/21 03:57:43;;;;;;;;;;;;;;;-1.45;62.36;100991.83;126234;1099;104214;-79
2021/03/21 04:00:22;;;;;;;;;;;;;;;-1.54;62.68;100992.63;126271;1099;104153;-78
2021/03/21 04:02:59;;;;;;;;;;;;;;;-1.60;62.84;100990.42;125369;1099;104303;-78
2021/03/21 04:05:31;;;;;;;;;;;;;;;-1.63;62.89;100987.56;126271;1099;104181;-78
2021/03/21 04:08:02;;;;;;;;;;;;;;;-1.66;62.93;100989.86;126282;1099;104162;-79
2021/03/21 04:10:34;;;;;;;;;;;;;;;-1.65;63.19;100986.53;125414;1099;104181;-79
2021/03/21 04:13:05;;;;;;;;;;;;;;;-1.60;64.12;100982.70;126289;1099;104150;-78
2021/03/21 04:15:38;;;;;;;;;;;;;;;-1.54;63.63;100992.63;126332;1099;105181;-78
2021/03/21 04:18:09;;;;;;;;;;;;;;;-1.55;63.29;100995.99;125338;1099;104227;-78
2021/03/21 04:20:38;;;;;;;;;;;;;;;-1.56;63.25;100987.34;126300;1099;104158;-78
2021/03/21 04:23:07;;;;;;;;;;;;;;;-1.54;63.34;100996.13;126317;1099;104277;-79
2021/03/21 04:25:36;;;;;;;;;;;;;;;-1.52;64.21;100986.88;126311;1099;104297;-79
2021/03/21 04:28:08;;;;;;;;;;;;;;;-1.48;64.40;100986.40;125330;1099;105463;-78
2021/03/21 04:30:38;;;;;;;;;;;;;;;-1.45;63.74;100996.05;126213;1099;104141;-78
2021/03/21 04:33:09;;;;;;;;;;;;;;;-1.49;64.06;100993.98;126325;1099;104178;-78
2021/03/21 04:35:39;;;;;;;;;;;;;;;-1.54;63.75;100996.13;125410;1099;104197;-78
2021/03/21 04:38:14;;;;;;;;;;;;;;;-1.58;64.30;100995.70;126298;1099;104175;-79
2021/03/21 04:40:43;;;;;;;;;;;;;;;-1.64;63.25;100991.81;126305;1099;104144;-78
2021/03/21 04:43:14;;;;;;;;;;;;;;;-1.66;63.44;100988.17;126315;1099;104255;-78
2021/03/21 04:45:46;;;;;;;;;;;;;;;-1.69;63.49;100990.47;126318;1099;104197;-79
2021/03/21 04:48:16;;;;;;;;;;;;;;;-1.68;63.13;100991.39;125368;1099;104181;-79
2021/03/21 04:50:43;;;;;;;;;;;;;;;-1.68;64.41;100987.14;126263;1099;104150;-78
2021/03/21 04:53:17;;;;;;;;;;;;;;;-1.63;63.74;100985.88;126245;1099;104146;-78
2021/03/21 04:55:46;;;;;;;;;;;;;;;-1.56;63.81;100986.45;125367;1099;104233;-78
2021/03/21 04:58:15;;;;;;;;;;;;;;;-1.53;63.56;100982.48;126290;1099;104624;-79
2021/03/21 05:00:47;;;;;;;;;;;;;;;-1.47;64.77;100983.03;126283;1099;104197;-78
2021/03/21 05:03:18;;;;;;;;;;;;;;;-1.44;63.66;100977.27;126369;1099;104241;-78
2021/03/21 05:05:49;;;;;;;;;;;;;;;-1.42;63.99;100974.84;126300;1099;104166;-78
2021/03/21 05:08:19;;;;;;;;;;;;;;;-1.40;64.50;100976.80;126160;1099;104184;-78
2021/03/21 05:10:50;;;;;;;;;;;;;;;-1.40;63.89;100984.52;126180;1099;104153;-78
2021/03/21 05:13:20;;;;;;;;;;;;;;;-1.42;64.51;100982.56;126254;1099;104188;-78
2021/03/21 05:15:53;;;;;;;;;;;;;;;-1.44;63.58;100982.42;126312;1099;104144;-78
2021/03/21 05:18:25;;;;;;;;;;;;;;;-1.43;63.64;100978.17;126250;1098;104174;-79
2021/03/21 05:20:59;;;;;;;;;;;;;;;-1.40;64.26;100976.80;125378;1102;108259;-78
2021/03/21 05:23:33;;;;;;;;;;;;;;;-1.34;64.49;100973.86;126285;1099;104153;-78
2021/03/21 05:26:03;;;;;;;;;;;;;;;-1.28;64.90;100975.34;126298;1099;104296;-78
2021/03/21 05:28:42;;;;;;;;;;;;;;;-1.17;65.12;100977.95;126296;1098;104140;-79
2021/03/21 05:31:10;;;;;;;;;;;;;;;-1.04;65.16;100970.58;126265;1099;117894;-78
2021/03/21 05:33:39;;;;;;;;;;;;;;;-0.89;65.31;100968.44;126293;1099;104172;-78
2021/03/21 05:36:13;;;;;;;;;;;;;;;-0.72;64.75;100972.51;126321;1099;104275;-78
2021/03/21 05:38:45;;;;;;;;;;;;;;;-0.58;64.86;100968.56;126319;1099;104269;-78
2021/03/21 05:41:27;;;;;;;;;;;;;;;-0.48;64.91;100970.27;126279;1099;106844;-78
2021/03/21 05:44:04;;;;;;;;;;;;;;;-0.39;64.27;100971.06;126279;1099;102827;-79
2021/03/21 05:46:41;;;;;;;;;;;;;;;-0.31;64.50;100974.31;125379;1099;104188;-78
2021/03/21 05:49:23;;;;;;;;;;;;;;;-0.20;64.49;100971.90;126269;1099;104743;-78
2021/03/21 05:52:08;;;;;;;;;;;;;;;-0.07;64.79;100973.84;126298;1099;110821;-78
2021/03/21 05:54:56;;;;;;;;;;;;;;;0.05;64.69;100970.50;126307;1098;104728;-78
2021/03/21 05:57:41;;;;;;;;;;;;;;;0.17;64.64;100967.30;126236;1099;104117;-78
2021/03/21 06:00:30;;;;;;;;;;;;;;;0.28;64.71;100962.12;126097;1098;106164;-78
2021/03/21 06:03:11;;;;;;;;;;;;;;;0.39;64.80;100966.53;126231;1098;104156;-78
2021/03/21 06:05:47;;;;;;;;;;;;;;;0.48;64.47;100964.72;126142;1099;104258;-78
2021/03/21 06:08:22;;;;;;;;;;;;;;;0.54;64.88;100962.61;126073;1099;104306;-78
2021/03/21 06:11:04;;;;;;;;;;;;;;;0.62;64.17;100963.25;126104;1099;104188;-78
2021/03/21 06:13:39;;;;;;;;;;;;;;;0.70;64.48;100962.22;125414;1099;104214;-78
2021/03/21 06:16:17;;;;;;;;;;;;;;;0.78;64.59;100964.52;126184;1099;104175;-79
2021/03/21 06:18:55;;;;;;;;;;;;;;;0.85;64.39;100967.73;125351;1099;104165;-78
2021/03/21 06:21:43;;;;;;;;;;;;;;;0.93;64.54;100963.19;125331;1099;104249;-79
2021/03/21 06:24:24;;;;;;;;;;;;;;;1.00;64.44;100960.34;125378;1099;104201;-78
2021/03/21 06:26:56;;;;;;;;;;;;;;;1.08;64.35;100964.44;126237;1099;104181;-79
2021/03/21 06:29:38;;;;;;;;;;;;;;;1.16;64.07;100959.88;126252;1099;104153;-78
2021/03/21 06:32:18;;;;;;;;;;;;;;;1.24;64.12;100963.09;126200;1099;104162;-78
2021/03/21 06:34:50;;;;;;;;;;;;;;;1.36;64.18;100961.48;125404;1099;104163;-78
2021/03/21 06:37:27;;;;;;;;;;;;;;;1.48;64.63;100963.23;126265;1099;104143;-78
2021/03/21 06:40:08;;;;;;;;;;;;;;;1.56;64.19;100957.90;126286;1099;104146;-78
2021/03/21 06:42:54;;;;;;;;;;;;;;;1.68;64.42;100965.70;126255;1099;105364;-79
2021/03/21 06:45:35;;;;;;;;;;;;;;;1.76;63.79;100967.23;125377;1099;104213;-78
2021/03/21 06:48:19;;;;;;;;;;;;;;;1.83;64.21;100968.59;125535;1099;104246;-78
2021/03/21 06:50:53;;;;;;;;;;;;;;;1.95;64.29;100966.08;126245;1099;104447;-78
2021/03/21 06:53:26;;;;;;;;;;;;;;;2.10;64.21;100962.09;126309;1099;104211;-78
2021/03/21 06:55:56;;;;;;;;;;;;;;;2.20;63.98;100954.98;126324;1099;104162;-78
2021/03/21 06:58:38;;;;;;;;;;;;;;;2.32;64.13;100961.11;126332;1099;104172;-78
2021/03/21 07:01:18;;;;;;;;;;;;;;;2.39;63.56;100955.61;126291;1099;104149;-79
2021/03/21 07:03:58;;;;;;;;;;;;;;;2.53;63.84;100955.77;126312;1099;104204;-78
2021/03/21 07:06:40;;;;;;;;;;;;;;;2.66;63.16;100945.52;126282;1099;104158;-78
2021/03/21 07:09:11;;;;;;;;;;;;;;;2.83;63.22;100938.98;126284;1099;104175;-77
2021/03/21 07:11:45;;;;;;;;;;;;;;;2.98;63.02;100934.05;125344;1099;105043;-79
2021/03/21 07:14:26;;;;;;;;;;;;;;;3.14;63.50;100934.34;126333;1099;104175;-78
2021/03/21 07:17:09;;;;;;;;;;;;;;;3.26;63.35;100936.94;125478;1099;104198;-78
2021/03/21 07:19:48;;;;;;;;;;;;;;;3.38;62.85;100927.44;126294;1099;104182;-78
2021/03/21 07:22:30;;;;;;;;;;;;;;;3.52;63.31;100928.42;126300;1099;104277;-78
2021/03/21 07:25:08;;;;;;;;;;;;;;;3.62;62.66;100922.17;125375;1099;104210;-77
2021/03/21 07:27:42;;;;;;;;;;;;;;;3.76;62.69;100915.36;126203;1098;104346;-77
2021/03/21 07:30:12;;;;;;;;;;;;;;;3.85;62.96;100910.80;126230;1098;104201;-77
2021/03/21 07:32:48;;;;;;;;;;;;;;;3.93;62.96;100901.84;126214;1099;104675;-77
2021/03/21 07:35:24;;;;;;;;;;;;;;;4.05;62.89;100901.78;126333;1098;104153;-78
2021/03/21 07:37:57;;;;;;;;;;;;;;;4.11;62.53;100902.20;126330;1099;104249;-78
2021/03/21 07:40:33;;;;;;;;;;;;;;;4.19;61.74;100899.20;125447;1099;104175;-78
2021/03/21 07:43:14;;;;;;;;;;;;;;;4.27;61.70;100898.02;126266;1099;104152;-78
2021/03/21 07:45:53;;;;;;;;;;;;;;;4.31;62.18;100887.94;126205;1099;104150;-78
2021/03/21 07:48:28;;;;;;;;;;;;;;;4.38;61.52;100896.14;125173;1099;104140;-78
2021/03/21 07:51:03;;;;;;;;;;;;;;;4.48;61.48;100888.17;125237;1099;104182;-78
2021/03/21 07:53:34;;;;;;;;;;;;;;;4.54;61.61;100887.69;125198;1099;104143;-79
2021/03/21 07:56:07;;;;;;;;;;;;;;;4.58;61.09;100889.67;125242;1099;104233;-78
2021/03/21 07:58:38;;;;;;;;;;;;;;;4.63;61.04;100889.19;125161;1099;104157;-78
2021/03/21 08:01:06;;;;;;;;;;;;;;;4.68;61.18;100882.58;125276;1099;104163;-79
2021/03/21 08:03:43;;;;;;;;;;;;;;;4.71;61.60;100886.20;125234;1099;104230;-79
2021/03/21 08:06:14;;;;;;;;;;;;;;;4.75;61.09;100878.67;125294;1099;104828;-79
2021/03/21 08:08:45;;;;;;;;;;;;;;;4.91;60.77;100880.59;125275;1099;104159;-78
2021/03/21 08:11:17;;;;;;;;;;;;;;;5.00;61.22;100875.98;125171;1099;104144;-78
2021/03/21 08:13:46;;;;;;;;;;;;;;;5.06;60.75;100880.65;125200;1099;104162;-78
2021/03/21 08:16:16;;;;;;;;;;;;;;;5.16;60.87;100876.95;125254;1102;104271;-77
2021/03/21 08:18:46;;;;;;;;;;;;;;;5.26;60.47;100873.22;125283;1102;104307;-77
2021/03/21 08:21:17;;;;;;;;;;;;;;;5.36;60.50;100865.17;125285;1102;104297;-78
2021/03/21 08:23:48;;;;;;;;;;;;;;;5.47;60.24;100865.84;125231;1102;104174;-77
2021/03/21 08:26:22;;;;;;;;;;;;;;;5.50;59.80;100859.14;125272;1101;104310;-78
2021/03/21 08:29:04;;;;;;;;;;;;;;;5.44;59.53;100861.36;125275;1102;104637;-78
2021/03/21 08:31:35;;;;;;;;;;;;;;;5.41;59.45;100855.97;125263;1102;104306;-77
2021/03/21 08:34:17;;;;;;;;;;;;;;;5.39;59.03;100858.48;125244;1102;104153;-78
2021/03/21 08:36:45;;;;;;;;;;;;;;;5.42;58.55;100852.53;125235;1102;104214;-79
2021/03/21 08:39:16;;;;;;;;;;;;;;;5.56;59.20;100848.19;125266;1102;104141;-79
2021/03/21 08:41:49;;;;;;;;;;;;;;;5.67;58.60;100848.84;125256;1100;104176;-79
2021/03/21 08:44:28;;;;;;;;;;;;;;;5.66;58.30;100845.35;125208;1102;104201;-78
2021/03/21 08:46:56;;;;;;;;;;;;;;;5.69;58.86;100836.84;125243;1099;104290;-78
2021/03/21 08:49:26;;;;;;;;;;;;;;;5.87;58.59;100830.11;126304;1099;104159;-78
2021/03/21 08:51:54;;;;;;;;;;;;;;;5.99;58.67;100835.19;125432;1099;104171;-78
2021/03/21 08:54:26;;;;;;;;;;;;;;;5.99;57.75;100826.48;125340;1099;104719;-79
2021/03/21 08:56:58;;;;;;;;;;;;;;;6.00;58.14;100825.66;125388;1099;104146;-78
2021/03/21 08:59:29;;;;;;;;;;;;;;;6.00;57.72;100823.05;126252;1099;104203;-78
2021/03/21 09:01:58;;;;;;;;;;;;;;;6.01;57.30;100823.15;125333;1099;104207;-78
2021/03/21 09:04:26;;;;;;;;;;;;;;;6.07;57.74;100818.30;125326;1099;104141;-78
2021/03/21 09:06:54;;;;;;;;;;;;;;;6.08;57.29;100814.90;125338;1100;104360;-78
2021/03/21 09:09:24;;;;;;;;;;;;;;;6.15;57.67;100807.44;126302;1099;104159;-79
2021/03/21 09:11:53;;;;;;;;;;;;;;;6.29;57.54;100810.05;125348;1099;104229;-78
2021/03/21 09:14:24;;;;;;;;;;;;;;;6.44;57.43;100806.52;126171;1099;102651;-78
2021/03/21 09:16:53;;;;;;;;;;;;;;;6.56;57.27;100795.88;126200;1099;104178;-79
2021/03/21 09:19:23;;;;;;;;;;;;;;;6.82;56.99;100798.26;126252;1099;104588;-78
2021/03/21 09:21:50;;;;;;;;;;;;;;;7.06;56.84;100792.58;126327;1099;104171;-79
2021/03/21 09:24:22;;;;;;;;;;;;;;;7.32;56.79;100793.07;126271;1099;105533;-79
2021/03/21 09:26:51;;;;;;;;;;;;;;;7.59;56.79;100779.67;126275;1099;104262;-78
2021/03/21 09:29:27;;;;;;;;;;;;;;;7.78;57.11;100779.83;126217;1099;104191;-78
2021/03/21 09:31:56;;;;;;;;;;;;;;;7.86;56.74;100768.04;126262;1099;104165;-77
2021/03/21 09:34:30;;;;;;;;;;;;;;;7.87;56.42;100772.45;126251;1099;104231;-78
2021/03/21 09:37:00;;;;;;;;;;;;;;;7.81;55.94;100760.81;126215;1099;104144;-79
2021/03/21 09:39:29;;;;;;;;;;;;;;;7.64;55.90;100758.21;126308;1099;104203;-78
2021/03/21 09:41:57;;;;;;;;;;;;;;;7.59;55.74;100759.70;126135;1099;104306;-78
2021/03/21 09:44:33;;;;;;;;;;;;;;;7.58;55.63;100751.78;126265;1099;104207;-79
2021/03/21 09:47:09;;;;;;;;;;;;;;;7.65;55.34;100738.20;126220;1099;104137;-78
2021/03/21 09:49:45;;;;;;;;;;;;;;;7.82;55.66;100733.84;126248;1099;104617;-79
2021/03/21 09:52:14;;;;;;;;;;;;;;;8.03;55.67;100736.64;126267;1099;104156;-79
2021/03/21 09:54:48;;;;;;;;;;;;;;;8.19;55.90;100731.33;126262;1099;104293;-78
2021/03/21 09:57:28;;;;;;;;;;;;;;;8.30;55.18;100730.97;126190;1099;104270;-77
2021/03/21 09:59:58;;;;;;;;;;;;;;;8.42;55.14;100721.11;126254;1099;104717;-77
2021/03/21 10:02:33;;;;;;;;;;;;;;;8.54;54.48;100719.11;126179;1099;104153;-77
2021/03/21 10:05:06;;;;;;;;;;;;;;;8.62;54.35;100725.59;126080;1098;105480;-78
2021/03/21 10:07:42;;;;;;;;;;;;;;;8.64;53.80;100717.81;126267;1099;104283;-79
2021/03/21 10:10:16;;;;;;;;;;;;;;;8.81;54.24;100710.75;126201;1099;104152;-78
2021/03/21 10:12:45;;;;;;;;;;;;;;;8.85;53.83;100698.70;126262;1098;104159;-79
2021/03/21 10:15:16;;;;;;;;;;;;;;;8.97;54.21;100699.26;125345;1099;104405;-78
2021/03/21 10:17:49;;;;;;;;;;;;;;;9.12;53.34;100691.21;126250;1099;104228;-78
2021/03/21 10:20:18;;;;;;;;;;;;;;;9.26;52.41;100686.59;126249;1099;104159;-78
2021/03/21 10:22:56;;;;;;;;;;;;;;;9.35;52.88;100680.02;126166;1099;104149;-78
2021/03/21 10:25:38;;;;;;;;;;;;;;;9.38;53.29;100678.35;126268;1099;104140;-78
2021/03/21 10:28:20;;;;;;;;;;;;;;;9.33;52.13;100676.45;126328;1099;104217;-77
2021/03/21 10:31:01;;;;;;;;;;;;;;;9.12;52.23;100671.16;125461;1099;104592;-78
2021/03/21 10:33:32;;;;;;;;;;;;;;;8.93;52.62;100679.03;125553;1099;104155;-77
2021/03/21 10:36:00;;;;;;;;;;;;;;;8.91;52.25;100672.81;126320;1099;105855;-78
2021/03/21 10:38:38;;;;;;;;;;;;;;;8.87;52.63;100671.78;125414;1099;104357;-78
2021/03/21 10:41:07;;;;;;;;;;;;;;;8.85;51.69;100656.83;125413;1099;104206;-78
2021/03/21 10:43:48;;;;;;;;;;;;;;;8.78;52.37;100656.55;126253;1099;104248;-79
2021/03/21 10:46:42;;;;;;;;;;;;;;;8.74;51.44;100648.49;125201;1101;104021;-79
2021/03/21 10:49:10;;;;;;;;;;;;;;;8.75;52.08;100642.45;125173;1102;104306;-78
2021/03/21 10:51:48;;;;;;;;;;;;;;;8.78;52.09;100642.58;125334;1102;104371;-77
2021/03/21 10:54:24;;;;;;;;;;;;;;;8.77;51.76;100635.55;125229;1102;104637;-78
2021/03/21 10:57:06;;;;;;;;;;;;;;;8.78;51.63;100632.12;125142;1102;104270;-78
2021/03/21 10:59:33;;;;;;;;;;;;;;;8.70;51.47;100618.69;125305;1102;104207;-79
2021/03/21 11:02:15;;;;;;;;;;;;;;;8.69;51.73;100616.00;125282;1102;104158;-78
2021/03/21 11:04:43;;;;;;;;;;;;;;;8.72;51.07;100621.38;125302;1102;104306;-78
2021/03/21 11:07:18;;;;;;;;;;;;;;;8.63;51.53;100607.06;125275;1102;104331;-78
2021/03/21 11:09:54;;;;;;;;;;;;;;;8.65;51.36;100609.75;125270;1102;104181;-79
2021/03/21 11:12:33;;;;;;;;;;;;;;;8.69;50.71;100606.42;125329;1102;104278;-78
2021/03/21 11:15:15;;;;;;;;;;;;;;;8.74;51.04;100599.70;125261;1102;104335;-78
2021/03/21 11:17:43;;;;;;;;;;;;;;;8.80;50.77;100594.74;125761;1099;104158;-79
2021/03/21 11:20:24;;;;;;;;;;;;;;;8.89;51.15;100595.96;126327;1099;104162;-78
2021/03/21 11:22:52;;;;;;;;;;;;;;;8.71;50.01;100583.86;126305;1099;105160;-79
2021/03/21 11:25:30;;;;;;;;;;;;;;;8.57;50.55;100585.86;126249;1099;104159;-79
2021/03/21 11:27:58;;;;;;;;;;;;;;;8.35;50.21;100578.73;126252;1099;104598;-78
2021/03/21 11:30:28;;;;;;;;;;;;;;;8.19;50.03;100576.22;126235;1099;104219;-79
2021/03/21 11:32:56;;;;;;;;;;;;;;;8.11;49.96;100562.80;126311;1099;104258;-77
2021/03/21 11:35:28;;;;;;;;;;;;;;;8.12;50.73;100561.98;126250;1099;104165;-78
2021/03/21 11:37:56;;;;;;;;;;;;;;;8.12;50.39;100553.22;126252;1099;104156;-78
2021/03/21 11:40:27;;;;;;;;;;;;;;;8.20;50.23;100549.27;125332;1099;104200;-78
2021/03/21 11:43:09;;;;;;;;;;;;;;;8.34;50.25;100542.06;126319;1099;104344;-78
2021/03/21 11:45:37;;;;;;;;;;;;;;;8.48;49.52;100540.98;126274;1099;104159;-78
2021/03/21 11:48:24;;;;;;;;;;;;;;;8.63;49.81;100535.52;126228;1099;104792;-78
2021/03/21 11:50:55;;;;;;;;;;;;;;;8.77;49.90;100520.42;125374;1099;104176;-79
2021/03/21 11:53:24;;;;;;;;;;;;;;;8.89;49.70;100517.45;126305;1099;104611;-78
2021/03/21 11:55:54;;;;;;;;;;;;;;;9.03;49.24;100516.31;126312;1098;104701;-78
2021/03/21 11:58:28;;;;;;;;;;;;;;;9.16;49.37;100509.86;126142;1099;104149;-78
2021/03/21 12:01:00;;;;;;;;;;;;;;;9.26;49.55;100506.80;126228;1099;104201;-77
2021/03/21 12:03:29;;;;;;;;;;;;;;;9.28;49.21;100488.53;126280;1099;104152;-77
2021/03/21 12:05:59;;;;;;;;;;;;;;;9.24;48.06;100490.14;126253;1099;104146;-78
2021/03/21 12:08:34;;;;;;;;;;;;;;;9.25;47.77;100489.29;126250;1099;104210;-78
2021/03/21 12:11:17;;;;;;;;;;;;;;;9.23;49.48;100487.46;126258;1099;104146;-77
2021/03/21 12:13:46;;;;;;;;;;;;;;;9.21;49.13;100479.55;126284;1099;104147;-78
2021/03/21 12:16:28;;;;;;;;;;;;;;;9.12;49.01;100468.70;126296;1099;104165;-79
2021/03/21 12:18:57;;;;;;;;;;;;;;;9.11;48.64;100464.28;126233;1099;104146;-78
2021/03/21 12:21:25;;;;;;;;;;;;;;;9.12;49.39;100466.96;126321;1099;104160;-80
2021/03/21 12:24:03;;;;;;;;;;;;;;;9.09;48.43;100453.75;126314;1099;104137;-78
2021/03/21 12:26:47;;;;;;;;;;;;;;;9.08;47.83;100459.80;126275;1099;104162;-78